AWG-1

EHMA · Friesland, 荷兰

罗盘
风向 的 风向 180° 直升机
风: 27 kt, 6 beaufort
0 1.000 2.000 3.000 4.000 5.000
没有观察到明显的云
METAR EHMA 270425Z AUTO 18027KT 9999 NSC 07/04 Q1020

METAR AWG-1 - EHMA

AWG-1是,荷兰中的直升机场。 该领域的国际民航组织标志是EHMA.

这份报告是针对2022年11月27日 05:25, 当地时间在AWG-1进行的。

机场观察

风向为180°,速度为27 kt。

可见度为10 km 或者更多。

有没有观察到明显的云。 没有观察到天花板。

温度为7 °C,阵风为0 °C。 露点为4 °C,相对湿度为81%。 海平面上的气压为1020 hPa (QNH)。

白天

今天,太阳从08:22升起,在16:24降落。 这适用于AWG-1,世界夏令时可能有所不同。 当地时间与世界标准时间之间的时差为+1 小时。 当前,没有夏令时有效。

公司介绍

我们没有关于这个机场的公司信息。

体会

到Vliegles.nl去找飞行课程,跳伞和其他飞行体验。 浏览页面,了解AWG-1附近所有可用的活动。 你也可以使用搜索功能来寻找你所在地附近的特定飞行课程、跳伞或其他飞行体验。

乌云

- NSC 没有观察到明显的云

温度 & 天气

温度 7 °C
露点 4 °C
相对湿度 81%
风寒 0 °C
Kp-index 3 (0-9)

白天

日出
08:22 (2:49)
中午
12:23
日落
16:24

小工具

你想在你的网站上有一个关于AWG-1的当前航空天气(METAR)的小部件吗?

显示HTML代码

我们和第三方通过cookies跟踪您在我们网站上的互联网行为。如果你继续,我们认为你同意我们的饼干政策